sensor_id;sensor_type;location;lat;lon;timestamp;pressure;altitude;pressure_sealevel;temperature;humidity
54562;BME280;69047;53.358;-1.486;2023-12-20T00:01:26;100657.66;;;8.55;64.28
54562;BME280;69047;53.358;-1.486;2023-12-20T00:03:52;100677.47;;;8.61;63.91
54562;BME280;69047;53.358;-1.486;2023-12-20T00:06:19;100668.72;;;8.54;64.23
54562;BME280;69047;53.358;-1.486;2023-12-20T00:08:44;100670.69;;;8.58;64.51
54562;BME280;69047;53.358;-1.486;2023-12-20T00:11:10;100656.47;;;8.51;64.27
54562;BME280;69047;53.358;-1.486;2023-12-20T00:13:35;100664.13;;;8.66;64.09
54562;BME280;69047;53.358;-1.486;2023-12-20T00:16:01;100651.19;;;8.68;63.86
54562;BME280;69047;53.358;-1.486;2023-12-20T00:18:26;100659.34;;;8.84;63.98
54562;BME280;69047;53.358;-1.486;2023-12-20T00:20:52;100655.28;;;8.70;63.80
54562;BME280;69047;53.358;-1.486;2023-12-20T00:23:17;100665.88;;;9.00;63.07
54562;BME280;69047;53.358;-1.486;2023-12-20T00:25:43;100656.41;;;8.86;62.78
54562;BME280;69047;53.358;-1.486;2023-12-20T00:28:08;100656.50;;;8.91;62.94
54562;BME280;69047;53.358;-1.486;2023-12-20T00:30:34;100667.66;;;8.95;63.04
54562;BME280;69047;53.358;-1.486;2023-12-20T00:33:00;100673.75;;;8.90;63.04
54562;BME280;69047;53.358;-1.486;2023-12-20T00:35:26;100657.47;;;8.85;62.88
54562;BME280;69047;53.358;-1.486;2023-12-20T00:37:51;100676.25;;;8.92;63.01
54562;BME280;69047;53.358;-1.486;2023-12-20T00:40:17;100678.13;;;8.91;63.36
54562;BME280;69047;53.358;-1.486;2023-12-20T00:42:42;100668.66;;;8.77;63.76
54562;BME280;69047;53.358;-1.486;2023-12-20T00:45:20;100661.47;;;8.82;64.34
54562;BME280;69047;53.358;-1.486;2023-12-20T00:47:47;100668.53;;;8.83;64.03
54562;BME280;69047;53.358;-1.486;2023-12-20T00:50:13;100665.19;;;8.93;64.27
54562;BME280;69047;53.358;-1.486;2023-12-20T00:52:38;100679.50;;;8.94;64.25
54562;BME280;69047;53.358;-1.486;2023-12-20T00:55:04;100672.28;;;8.82;64.78
54562;BME280;69047;53.358;-1.486;2023-12-20T00:57:30;100685.28;;;8.85;64.01
54562;BME280;69047;53.358;-1.486;2023-12-20T00:59:56;100671.31;;;8.88;63.20
54562;BME280;69047;53.358;-1.486;2023-12-20T01:02:21;100663.09;;;8.95;62.87
54562;BME280;69047;53.358;-1.486;2023-12-20T01:04:47;100681.38;;;9.05;62.37
54562;BME280;69047;53.358;-1.486;2023-12-20T01:07:12;100679.63;;;8.99;62.99
54562;BME280;69047;53.358;-1.486;2023-12-20T01:09:38;100671.19;;;8.95;63.18
54562;BME280;69047;53.358;-1.486;2023-12-20T01:12:03;100655.50;;;9.09;62.99
54562;BME280;69047;53.358;-1.486;2023-12-20T01:14:32;100660.81;;;9.04;63.52
54562;BME280;69047;53.358;-1.486;2023-12-20T01:16:57;100699.63;;;8.86;64.07
54562;BME280;69047;53.358;-1.486;2023-12-20T01:19:24;100650.84;;;9.04;64.09
54562;BME280;69047;53.358;-1.486;2023-12-20T01:21:50;100653.34;;;8.94;63.26
54562;BME280;69047;53.358;-1.486;2023-12-20T01:24:15;100634.28;;;9.01;63.58
54562;BME280;69047;53.358;-1.486;2023-12-20T01:26:40;100647.94;;;8.94;64.15
54562;BME280;69047;53.358;-1.486;2023-12-20T01:29:06;100639.75;;;8.89;64.14
54562;BME280;69047;53.358;-1.486;2023-12-20T01:31:32;100639.69;;;9.01;63.98
54562;BME280;69047;53.358;-1.486;2023-12-20T01:33:57;100645.91;;;9.01;63.67
54562;BME280;69047;53.358;-1.486;2023-12-20T01:36:22;100645.31;;;8.99;63.92
54562;BME280;69047;53.358;-1.486;2023-12-20T01:38:48;100646.97;;;9.00;63.88
54562;BME280;69047;53.358;-1.486;2023-12-20T01:41:13;100624.88;;;9.03;64.30
54562;BME280;69047;53.358;-1.486;2023-12-20T01:43:39;100637.53;;;8.86;65.04
54562;BME280;69047;53.358;-1.486;2023-12-20T01:46:04;100627.69;;;8.80;65.70
54562;BME280;69047;53.358;-1.486;2023-12-20T01:48:30;100618.22;;;8.94;65.17
54562;BME280;69047;53.358;-1.486;2023-12-20T01:50:58;100618.66;;;8.74;64.53
54562;BME280;69047;53.358;-1.486;2023-12-20T01:53:25;100629.41;;;8.86;64.78
54562;BME280;69047;53.358;-1.486;2023-12-20T01:55:54;100614.19;;;8.80;64.18
54562;BME280;69047;53.358;-1.486;2023-12-20T01:58:21;100610.81;;;9.01;64.10
54562;BME280;69047;53.358;-1.486;2023-12-20T02:00:47;100599.88;;;8.96;64.05
54562;BME280;69047;53.358;-1.486;2023-12-20T02:03:13;100624.78;;;8.98;64.11
54562;BME280;69047;53.358;-1.486;2023-12-20T02:05:39;100609.28;;;8.94;64.74
54562;BME280;69047;53.358;-1.486;2023-12-20T02:08:05;100613.84;;;9.05;64.50
54562;BME280;69047;53.358;-1.486;2023-12-20T02:10:31;100617.19;;;9.12;64.18
54562;BME280;69047;53.358;-1.486;2023-12-20T02:12:57;100610.03;;;8.89;65.15
54562;BME280;69047;53.358;-1.486;2023-12-20T02:15:28;100598.69;;;9.04;65.00
54562;BME280;69047;53.358;-1.486;2023-12-20T02:17:57;100601.00;;;9.12;65.36
54562;BME280;69047;53.358;-1.486;2023-12-20T02:20:23;100583.47;;;8.98;65.69
54562;BME280;69047;53.358;-1.486;2023-12-20T02:22:48;100596.97;;;8.98;66.11
54562;BME280;69047;53.358;-1.486;2023-12-20T02:25:14;100582.06;;;8.95;66.93
54562;BME280;69047;53.358;-1.486;2023-12-20T02:27:39;100596.06;;;8.92;66.93
54562;BME280;69047;53.358;-1.486;2023-12-20T02:30:06;100594.97;;;8.93;67.01
54562;BME280;69047;53.358;-1.486;2023-12-20T02:32:31;100592.13;;;9.00;66.16
54562;BME280;69047;53.358;-1.486;2023-12-20T02:34:57;100593.63;;;9.07;65.61
54562;BME280;69047;53.358;-1.486;2023-12-20T02:37:23;100592.66;;;9.13;66.04
54562;BME280;69047;53.358;-1.486;2023-12-20T02:39:48;100602.88;;;9.11;65.71
54562;BME280;69047;53.358;-1.486;2023-12-20T02:42:14;100599.53;;;9.21;66.06
54562;BME280;69047;53.358;-1.486;2023-12-20T02:44:39;100597.03;;;9.03;66.23
54562;BME280;69047;53.358;-1.486;2023-12-20T02:47:04;100585.81;;;9.22;66.39
54562;BME280;69047;53.358;-1.486;2023-12-20T02:49:30;100602.31;;;9.09;66.63
54562;BME280;69047;53.358;-1.486;2023-12-20T02:51:55;100589.97;;;9.13;66.60
54562;BME280;69047;53.358;-1.486;2023-12-20T02:54:24;100595.31;;;9.25;66.49
54562;BME280;69047;53.358;-1.486;2023-12-20T02:56:58;100611.91;;;9.17;67.27
54562;BME280;69047;53.358;-1.486;2023-12-20T02:59:23;100596.81;;;9.04;68.17
54562;BME280;69047;53.358;-1.486;2023-12-20T03:01:49;100583.31;;;9.04;68.29
54562;BME280;69047;53.358;-1.486;2023-12-20T03:04:14;100590.69;;;9.09;67.83
54562;BME280;69047;53.358;-1.486;2023-12-20T03:06:40;100597.59;;;9.16;68.13
54562;BME280;69047;53.358;-1.486;2023-12-20T03:09:05;100595.75;;;9.05;69.39
54562;BME280;69047;53.358;-1.486;2023-12-20T03:11:30;100604.84;;;8.87;70.19
54562;BME280;69047;53.358;-1.486;2023-12-20T03:13:56;100581.47;;;8.93;70.01
54562;BME280;69047;53.358;-1.486;2023-12-20T03:16:22;100581.88;;;8.85;69.52
54562;BME280;69047;53.358;-1.486;2023-12-20T03:18:47;100578.19;;;8.91;69.81
54562;BME280;69047;53.358;-1.486;2023-12-20T03:21:13;100576.81;;;8.88;69.80
54562;BME280;69047;53.358;-1.486;2023-12-20T03:23:38;100559.97;;;8.70;70.49
54562;BME280;69047;53.358;-1.486;2023-12-20T03:26:09;100567.13;;;8.76;70.72
54562;BME280;69047;53.358;-1.486;2023-12-20T03:28:36;100570.28;;;8.73;72.48
54562;BME280;69047;53.358;-1.486;2023-12-20T03:31:02;100582.66;;;8.69;73.15
54562;BME280;69047;53.358;-1.486;2023-12-20T03:33:28;100579.16;;;8.57;74.32
54562;BME280;69047;53.358;-1.486;2023-12-20T03:35:53;100588.19;;;8.62;74.12
54562;BME280;69047;53.358;-1.486;2023-12-20T03:38:21;100592.78;;;8.50;74.06
54562;BME280;69047;53.358;-1.486;2023-12-20T03:40:49;100585.03;;;8.54;74.07
54562;BME280;69047;53.358;-1.486;2023-12-20T03:43:15;100582.19;;;8.60;73.73
54562;BME280;69047;53.358;-1.486;2023-12-20T03:45:41;100596.41;;;8.56;73.20
54562;BME280;69047;53.358;-1.486;2023-12-20T03:48:07;100587.84;;;8.59;72.85
54562;BME280;69047;53.358;-1.486;2023-12-20T03:50:32;100565.63;;;8.68;72.11
54562;BME280;69047;53.358;-1.486;2023-12-20T03:52:57;100566.63;;;8.79;71.12
54562;BME280;69047;53.358;-1.486;2023-12-20T03:55:23;100569.44;;;8.84;70.68
54562;BME280;69047;53.358;-1.486;2023-12-20T03:57:48;100560.13;;;8.92;69.76
54562;BME280;69047;53.358;-1.486;2023-12-20T04:00:14;100587.34;;;8.90;69.79
54562;BME280;69047;53.358;-1.486;2023-12-20T04:02:41;100575.28;;;8.93;70.96
54562;BME280;69047;53.358;-1.486;2023-12-20T04:05:07;100564.13;;;8.89;70.89
54562;BME280;69047;53.358;-1.486;2023-12-20T04:07:33;100577.03;;;8.87;72.23
54562;BME280;69047;53.358;-1.486;2023-12-20T04:09:59;100562.13;;;8.84;72.40
54562;BME280;69047;53.358;-1.486;2023-12-20T04:12:25;100562.41;;;8.83;72.77
54562;BME280;69047;53.358;-1.486;2023-12-20T04:14:51;100571.47;;;8.77;72.85
54562;BME280;69047;53.358;-1.486;2023-12-20T04:17:17;100565.66;;;8.85;72.15
54562;BME280;69047;53.358;-1.486;2023-12-20T04:19:43;100552.84;;;8.92;72.09
54562;BME280;69047;53.358;-1.486;2023-12-20T04:22:08;100546.28;;;8.88;70.73
54562;BME280;69047;53.358;-1.486;2023-12-20T04:24:34;100566.22;;;8.87;71.13
54562;BME280;69047;53.358;-1.486;2023-12-20T04:26:59;100554.94;;;8.90;72.10
54562;BME280;69047;53.358;-1.486;2023-12-20T04:29:25;100541.03;;;8.81;71.89
54562;BME280;69047;53.358;-1.486;2023-12-20T04:31:50;100529.91;;;8.78;71.28
54562;BME280;69047;53.358;-1.486;2023-12-20T04:34:19;100521.91;;;8.83;70.99
54562;BME280;69047;53.358;-1.486;2023-12-20T04:36:46;100529.03;;;8.89;70.30
54562;BME280;69047;53.358;-1.486;2023-12-20T04:39:13;100537.56;;;8.98;70.46
54562;BME280;69047;53.358;-1.486;2023-12-20T04:41:38;100526.19;;;8.96;71.66
54562;BME280;69047;53.358;-1.486;2023-12-20T04:44:04;100522.41;;;8.97;71.68
54562;BME280;69047;53.358;-1.486;2023-12-20T04:46:29;100553.97;;;8.79;71.58
54562;BME280;69047;53.358;-1.486;2023-12-20T04:48:54;100541.84;;;8.82;72.10
54562;BME280;69047;53.358;-1.486;2023-12-20T04:51:20;100545.41;;;8.99;71.86
54562;BME280;69047;53.358;-1.486;2023-12-20T04:53:46;100550.16;;;8.92;72.24
54562;BME280;69047;53.358;-1.486;2023-12-20T04:56:11;100560.13;;;8.92;71.26
54562;BME280;69047;53.358;-1.486;2023-12-20T04:58:37;100541.03;;;8.81;73.02
54562;BME280;69047;53.358;-1.486;2023-12-20T05:01:03;100556.03;;;8.89;73.78
54562;BME280;69047;53.358;-1.486;2023-12-20T05:03:30;100566.28;;;8.75;74.51
54562;BME280;69047;53.358;-1.486;2023-12-20T05:05:56;100549.31;;;8.63;74.76
54562;BME280;69047;53.358;-1.486;2023-12-20T05:08:21;100559.44;;;8.56;75.93
54562;BME280;69047;53.358;-1.486;2023-12-20T05:10:46;100551.84;;;8.53;75.99
54562;BME280;69047;53.358;-1.486;2023-12-20T05:13:12;100546.66;;;8.52;76.80
54562;BME280;69047;53.358;-1.486;2023-12-20T05:15:39;100553.72;;;8.53;76.72
54562;BME280;69047;53.358;-1.486;2023-12-20T05:18:05;100554.75;;;8.52;77.61
54562;BME280;69047;53.358;-1.486;2023-12-20T05:20:31;100568.50;;;8.50;76.71
54562;BME280;69047;53.358;-1.486;2023-12-20T05:22:56;100559.00;;;8.48;76.56
54562;BME280;69047;53.358;-1.486;2023-12-20T05:25:22;100553.72;;;8.53;76.64
54562;BME280;69047;53.358;-1.486;2023-12-20T05:27:47;100551.84;;;8.53;76.16
54562;BME280;69047;53.358;-1.486;2023-12-20T05:30:13;100561.06;;;8.57;76.06
54562;BME280;69047;53.358;-1.486;2023-12-20T05:32:39;100549.97;;;8.54;75.20
54562;BME280;69047;53.358;-1.486;2023-12-20T05:35:04;100561.31;;;8.56;74.78
54562;BME280;69047;53.358;-1.486;2023-12-20T05:37:30;100541.88;;;8.54;72.98
54562;BME280;69047;53.358;-1.486;2023-12-20T05:39:56;100541.03;;;8.53;73.89
54562;BME280;69047;53.358;-1.486;2023-12-20T05:42:21;100530.34;;;8.58;73.12
54562;BME280;69047;53.358;-1.486;2023-12-20T05:44:46;100522.50;;;8.57;73.11
54562;BME280;69047;53.358;-1.486;2023-12-20T05:47:12;100519.16;;;8.66;71.74
54562;BME280;69047;53.358;-1.486;2023-12-20T05:49:37;100543.78;;;8.70;71.79
54562;BME280;69047;53.358;-1.486;2023-12-20T05:52:03;100535.19;;;8.73;71.06
54562;BME280;69047;53.358;-1.486;2023-12-20T05:54:34;100540.59;;;8.73;71.38
54562;BME280;69047;53.358;-1.486;2023-12-20T05:56:59;100532.00;;;9.04;71.82
54562;BME280;69047;53.358;-1.486;2023-12-20T05:59:25;100536.50;;;8.99;71.88
54562;BME280;69047;53.358;-1.486;2023-12-20T06:01:51;100532.97;;;8.98;71.50
54562;BME280;69047;53.358;-1.486;2023-12-20T06:04:16;100531.59;;;8.96;71.84
54562;BME280;69047;53.358;-1.486;2023-12-20T06:06:42;100522.09;;;9.10;71.70
54562;BME280;69047;53.358;-1.486;2023-12-20T06:09:08;100499.19;;;8.96;70.73
54562;BME280;69047;53.358;-1.486;2023-12-20T06:11:33;100518.66;;;8.98;71.88
54562;BME280;69047;53.358;-1.486;2023-12-20T06:13:59;100533.66;;;9.22;72.25
54562;BME280;69047;53.358;-1.486;2023-12-20T06:16:24;100524.22;;;9.08;72.13
54562;BME280;69047;53.358;-1.486;2023-12-20T06:18:50;100532.91;;;9.10;72.31
54562;BME280;69047;53.358;-1.486;2023-12-20T06:21:15;100530.94;;;9.22;72.08
54562;BME280;69047;53.358;-1.486;2023-12-20T06:23:41;100523.00;;;9.15;71.02
54562;BME280;69047;53.358;-1.486;2023-12-20T06:26:06;100535.53;;;9.21;70.96
54562;BME280;69047;53.358;-1.486;2023-12-20T06:28:32;100529.94;;;9.11;68.99
54562;BME280;69047;53.358;-1.486;2023-12-20T06:30:57;100536.34;;;9.22;68.84
54562;BME280;69047;53.358;-1.486;2023-12-20T06:33:23;100538.06;;;9.28;69.26
54562;BME280;69047;53.358;-1.486;2023-12-20T06:35:49;100541.41;;;9.35;68.80
54562;BME280;69047;53.358;-1.486;2023-12-20T06:38:15;100543.47;;;9.28;69.32
54562;BME280;69047;53.358;-1.486;2023-12-20T06:40:40;100535.94;;;9.30;68.63
54562;BME280;69047;53.358;-1.486;2023-12-20T06:43:06;100534.13;;;9.35;68.51
54562;BME280;69047;53.358;-1.486;2023-12-20T06:45:32;100539.13;;;9.27;68.69
54562;BME280;69047;53.358;-1.486;2023-12-20T06:47:58;100543.47;;;9.28;68.73
54562;BME280;69047;53.358;-1.486;2023-12-20T06:50:24;100548.47;;;9.36;69.89
54562;BME280;69047;53.358;-1.486;2023-12-20T06:52:51;100547.06;;;9.33;70.06
54562;BME280;69047;53.358;-1.486;2023-12-20T06:55:17;100548.28;;;9.09;69.82
54562;BME280;69047;53.358;-1.486;2023-12-20T06:57:42;100534.47;;;9.22;69.51
54562;BME280;69047;53.358;-1.486;2023-12-20T07:00:08;100545.16;;;9.17;68.69
54562;BME280;69047;53.358;-1.486;2023-12-20T07:02:37;100559.34;;;9.08;70.18
54562;BME280;69047;53.358;-1.486;2023-12-20T07:05:03;100560.81;;;9.15;70.45
54562;BME280;69047;53.358;-1.486;2023-12-20T07:07:29;100553.75;;;9.14;70.48
54562;BME280;69047;53.358;-1.486;2023-12-20T07:09:55;100559.66;;;9.11;71.95
54562;BME280;69047;53.358;-1.486;2023-12-20T07:12:20;100564.78;;;8.96;71.97
54562;BME280;69047;53.358;-1.486;2023-12-20T07:14:46;100557.44;;;9.08;71.58
54562;BME280;69047;53.358;-1.486;2023-12-20T07:17:11;100545.16;;;9.01;71.24
54562;BME280;69047;53.358;-1.486;2023-12-20T07:19:39;100534.78;;;9.09;71.97
54562;BME280;69047;53.358;-1.486;2023-12-20T07:22:06;100548.47;;;9.19;71.74
54562;BME280;69047;53.358;-1.486;2023-12-20T07:24:32;100532.16;;;9.14;71.65
54562;BME280;69047;53.358;-1.486;2023-12-20T07:26:57;100537.47;;;9.09;71.95
54562;BME280;69047;53.358;-1.486;2023-12-20T07:29:23;100562.69;;;9.15;72.07
54562;BME280;69047;53.358;-1.486;2023-12-20T07:31:48;100556.78;;;9.01;72.38
54562;BME280;69047;53.358;-1.486;2023-12-20T07:34:17;100555.56;;;9.09;72.29
54562;BME280;69047;53.358;-1.486;2023-12-20T07:36:43;100551.47;;;9.06;71.85
54562;BME280;69047;53.358;-1.486;2023-12-20T07:39:08;100556.94;;;9.11;71.77
54562;BME280;69047;53.358;-1.486;2023-12-20T07:41:34;100564.50;;;9.09;71.30
54562;BME280;69047;53.358;-1.486;2023-12-20T07:43:59;100558.03;;;9.10;71.38
54562;BME280;69047;53.358;-1.486;2023-12-20T07:46:25;100557.94;;;9.05;70.16
54562;BME280;69047;53.358;-1.486;2023-12-20T07:48:50;100572.94;;;9.13;70.10
54562;BME280;69047;53.358;-1.486;2023-12-20T07:51:16;100590.34;;;9.05;69.73
54562;BME280;69047;53.358;-1.486;2023-12-20T07:53:43;100561.22;;;9.07;69.38
54562;BME280;69047;53.358;-1.486;2023-12-20T07:56:18;100581.75;;;9.08;69.28
54562;BME280;69047;53.358;-1.486;2023-12-20T07:58:45;100566.97;;;9.11;69.40
54562;BME280;69047;53.358;-1.486;2023-12-20T08:01:11;100565.31;;;9.10;68.97
54562;BME280;69047;53.358;-1.486;2023-12-20T08:03:37;100565.06;;;9.11;68.93
54562;BME280;69047;53.358;-1.486;2023-12-20T08:06:03;100573.53;;;9.31;68.54
54562;BME280;69047;53.358;-1.486;2023-12-20T08:08:28;100565.09;;;9.28;68.29
54562;BME280;69047;53.358;-1.486;2023-12-20T08:10:54;100559.59;;;9.39;68.78
54562;BME280;69047;53.358;-1.486;2023-12-20T08:13:19;100585.47;;;9.19;69.27
54562;BME280;69047;53.358;-1.486;2023-12-20T08:15:45;100574.59;;;9.30;69.44
54562;BME280;69047;53.358;-1.486;2023-12-20T08:18:10;100579.16;;;9.30;70.01
54562;BME280;69047;53.358;-1.486;2023-12-20T08:20:36;100577.69;;;9.39;69.77
54562;BME280;69047;53.358;-1.486;2023-12-20T08:23:01;100577.47;;;9.40;69.28
54562;BME280;69047;53.358;-1.486;2023-12-20T08:25:27;100590.81;;;9.30;69.93
54562;BME280;69047;53.358;-1.486;2023-12-20T08:27:52;100588.50;;;9.39;70.04
54562;BME280;69047;53.358;-1.486;2023-12-20T08:30:18;100598.00;;;9.25;71.07
54562;BME280;69047;53.358;-1.486;2023-12-20T08:32:49;100617.47;;;9.27;71.13
54562;BME280;69047;53.358;-1.486;2023-12-20T08:35:14;100592.53;;;9.36;71.33
54562;BME280;69047;53.358;-1.486;2023-12-20T08:37:40;100558.88;;;9.27;70.83
54562;BME280;69047;53.358;-1.486;2023-12-20T08:40:06;100571.41;;;9.33;70.84
54562;BME280;69047;53.358;-1.486;2023-12-20T08:42:31;100589.50;;;9.33;71.34
54562;BME280;69047;53.358;-1.486;2023-12-20T08:44:58;100583.25;;;9.32;71.07
54562;BME280;69047;53.358;-1.486;2023-12-20T08:47:26;100582.69;;;9.30;70.76
54562;BME280;69047;53.358;-1.486;2023-12-20T08:49:52;100572.88;;;9.41;70.47
54562;BME280;69047;53.358;-1.486;2023-12-20T08:52:22;100584.91;;;9.33;71.29
54562;BME280;69047;53.358;-1.486;2023-12-20T08:54:49;100588.09;;;9.47;71.20
54562;BME280;69047;53.358;-1.486;2023-12-20T08:57:19;100581.91;;;9.47;70.65
54562;BME280;69047;53.358;-1.486;2023-12-20T08:59:46;100591.81;;;9.58;70.45
54562;BME280;69047;53.358;-1.486;2023-12-20T09:02:12;100586.47;;;9.46;71.62
54562;BME280;69047;53.358;-1.486;2023-12-20T09:04:38;100585.72;;;9.51;71.52
54562;BME280;69047;53.358;-1.486;2023-12-20T09:07:04;100585.41;;;9.47;71.71
54562;BME280;69047;53.358;-1.486;2023-12-20T09:09:30;100592.22;;;9.50;71.14
54562;BME280;69047;53.358;-1.486;2023-12-20T09:11:57;100587.44;;;9.57;70.84
54562;BME280;69047;53.358;-1.486;2023-12-20T09:14:28;100571.50;;;9.55;70.56
54562;BME280;69047;53.358;-1.486;2023-12-20T09:17:01;100579.13;;;9.58;70.16
54562;BME280;69047;53.358;-1.486;2023-12-20T09:19:28;100585.34;;;9.59;70.00
54562;BME280;69047;53.358;-1.486;2023-12-20T09:21:54;100580.06;;;9.69;69.24
54562;BME280;69047;53.358;-1.486;2023-12-20T09:24:20;100570.41;;;9.73;69.49
54562;BME280;69047;53.358;-1.486;2023-12-20T09:26:45;100562.69;;;9.65;69.66
54562;BME280;69047;53.358;-1.486;2023-12-20T09:29:11;100562.81;;;9.70;70.32
54562;BME280;69047;53.358;-1.486;2023-12-20T09:31:40;100566.13;;;9.77;70.15
54562;BME280;69047;53.358;-1.486;2023-12-20T09:34:06;100560.81;;;9.82;70.39
54562;BME280;69047;53.358;-1.486;2023-12-20T09:36:32;100580.06;;;9.69;71.97
54562;BME280;69047;53.358;-1.486;2023-12-20T09:39:01;100550.09;;;9.54;73.78
54562;BME280;69047;53.358;-1.486;2023-12-20T09:41:28;100557.16;;;9.55;73.50
54562;BME280;69047;53.358;-1.486;2023-12-20T09:44:01;100552.06;;;9.58;73.65
54562;BME280;69047;53.358;-1.486;2023-12-20T09:46:31;100556.56;;;9.69;73.70
54562;BME280;69047;53.358;-1.486;2023-12-20T09:48:59;100557.28;;;9.81;73.78
54562;BME280;69047;53.358;-1.486;2023-12-20T09:51:27;100543.66;;;9.93;73.02
54562;BME280;69047;53.358;-1.486;2023-12-20T09:53:54;100540.31;;;9.86;72.95
54562;BME280;69047;53.358;-1.486;2023-12-20T09:56:21;100539.41;;;9.97;73.34
54562;BME280;69047;53.358;-1.486;2023-12-20T09:58:47;100537.38;;;9.87;73.43
54562;BME280;69047;53.358;-1.486;2023-12-20T10:01:12;100544.81;;;9.97;74.02
54562;BME280;69047;53.358;-1.486;2023-12-20T10:03:39;100542.16;;;10.02;74.15
54562;BME280;69047;53.358;-1.486;2023-12-20T10:06:06;100538.06;;;9.99;74.13
54562;BME280;69047;53.358;-1.486;2023-12-20T10:08:32;100538.81;;;9.95;74.90
54562;BME280;69047;53.358;-1.486;2023-12-20T10:10:58;100537.50;;;9.97;74.85
54562;BME280;69047;53.358;-1.486;2023-12-20T10:13:28;100534.91;;;9.86;75.71
54562;BME280;69047;53.358;-1.486;2023-12-20T10:16:00;100537.88;;;9.84;75.61
54562;BME280;69047;53.358;-1.486;2023-12-20T10:18:29;100533.72;;;9.98;75.26
54562;BME280;69047;53.358;-1.486;2023-12-20T10:20:56;100522.34;;;9.96;75.11
54562;BME280;69047;53.358;-1.486;2023-12-20T10:23:22;100515.50;;;10.11;74.84
54562;BME280;69047;53.358;-1.486;2023-12-20T10:25:57;100519.16;;;9.83;75.20
54562;BME280;69047;53.358;-1.486;2023-12-20T10:28:26;100511.03;;;9.99;75.89
54562;BME280;69047;53.358;-1.486;2023-12-20T10:30:55;100501.66;;;10.07;75.16
54562;BME280;69047;53.358;-1.486;2023-12-20T10:33:30;100499.53;;;10.09;75.09
54562;BME280;69047;53.358;-1.486;2023-12-20T10:35:59;100501.81;;;10.00;75.86
54562;BME280;69047;53.358;-1.486;2023-12-20T10:38:25;100499.44;;;10.04;75.77
54562;BME280;69047;53.358;-1.486;2023-12-20T10:40:54;100493.66;;;9.95;75.24
54562;BME280;69047;53.358;-1.486;2023-12-20T10:43:22;100469.44;;;10.06;75.92
54562;BME280;69047;53.358;-1.486;2023-12-20T10:45:48;100477.25;;;10.02;76.06
54562;BME280;69047;53.358;-1.486;2023-12-20T10:48:14;100462.53;;;9.93;75.97
54562;BME280;69047;53.358;-1.486;2023-12-20T10:50:41;100459.25;;;9.91;76.55
54562;BME280;69047;53.358;-1.486;2023-12-20T10:53:07;100450.13;;;9.75;76.61
54562;BME280;69047;53.358;-1.486;2023-12-20T10:55:33;100448.53;;;10.01;76.05
54562;BME280;69047;53.358;-1.486;2023-12-20T10:58:07;100443.13;;;10.01;76.40
54562;BME280;69047;53.358;-1.486;2023-12-20T11:00:36;100443.84;;;10.13;75.58
54562;BME280;69047;53.358;-1.486;2023-12-20T11:03:05;100436.13;;;10.00;76.40
54562;BME280;69047;53.358;-1.486;2023-12-20T11:08:22;100427.38;;;10.15;76.39
54562;BME280;69047;53.358;-1.486;2023-12-20T11:11:07;100399.81;;;9.96;76.65
54562;BME280;69047;53.358;-1.486;2023-12-20T11:14:06;100408.91;;;10.12;76.91
54562;BME280;69047;53.358;-1.486;2023-12-20T11:16:37;100401.19;;;9.98;76.21
54562;BME280;69047;53.358;-1.486;2023-12-20T11:19:05;100398.88;;;9.85;75.53
54562;BME280;69047;53.358;-1.486;2023-12-20T11:21:31;100393.72;;;9.84;75.75
54562;BME280;69047;53.358;-1.486;2023-12-20T11:23:56;100394.84;;;9.88;76.05
54562;BME280;69047;53.358;-1.486;2023-12-20T11:26:29;100368.56;;;10.10;75.77
54562;BME280;69047;53.358;-1.486;2023-12-20T11:29:34;100352.72;;;10.19;75.69
54562;BME280;69047;53.358;-1.486;2023-12-20T11:35:01;100353.94;;;10.06;75.36
54562;BME280;69047;53.358;-1.486;2023-12-20T11:37:31;100341.34;;;10.17;75.67
54562;BME280;69047;53.358;-1.486;2023-12-20T11:40:12;100324.91;;;10.23;75.16
54562;BME280;69047;53.358;-1.486;2023-12-20T11:42:40;100322.34;;;10.12;75.54
54562;BME280;69047;53.358;-1.486;2023-12-20T11:45:09;100312.78;;;10.04;75.41
54562;BME280;69047;53.358;-1.486;2023-12-20T11:47:36;100291.66;;;10.01;76.45
54562;BME280;69047;53.358;-1.486;2023-12-20T11:50:02;100304.00;;;10.14;75.47
54562;BME280;69047;53.358;-1.486;2023-12-20T11:52:29;100301.31;;;10.19;74.55
54562;BME280;69047;53.358;-1.486;2023-12-20T11:54:55;100312.78;;;10.31;73.83
54562;BME280;69047;53.358;-1.486;2023-12-20T11:57:21;100285.84;;;10.46;73.52
54562;BME280;69047;53.358;-1.486;2023-12-20T11:59:46;100271.44;;;10.35;72.86
54562;BME280;69047;53.358;-1.486;2023-12-20T12:02:12;100269.16;;;10.54;72.72
54562;BME280;69047;53.358;-1.486;2023-12-20T12:04:37;100259.19;;;10.65;72.38
54562;BME280;69047;53.358;-1.486;2023-12-20T12:07:03;100245.66;;;10.65;72.55
54562;BME280;69047;53.358;-1.486;2023-12-20T12:09:29;100243.28;;;10.78;72.17
54562;BME280;69047;53.358;-1.486;2023-12-20T12:11:54;100272.94;;;10.53;72.64
54562;BME280;69047;53.358;-1.486;2023-12-20T12:14:23;100241.22;;;10.48;73.41
54562;BME280;69047;53.358;-1.486;2023-12-20T12:16:52;100247.72;;;10.47;73.48
54562;BME280;69047;53.358;-1.486;2023-12-20T12:19:22;100242.41;;;10.63;73.02
54562;BME280;69047;53.358;-1.486;2023-12-20T12:21:49;100233.06;;;10.43;72.78
54562;BME280;69047;53.358;-1.486;2023-12-20T12:24:14;100256.50;;;10.65;72.33
54562;BME280;69047;53.358;-1.486;2023-12-20T12:26:40;100256.50;;;10.70;71.99
54562;BME280;69047;53.358;-1.486;2023-12-20T12:29:08;100214.22;;;10.64;72.78
54562;BME280;69047;53.358;-1.486;2023-12-20T12:31:35;100214.50;;;10.62;72.44
54562;BME280;69047;53.358;-1.486;2023-12-20T12:34:01;100237.00;;;10.63;72.70
54562;BME280;69047;53.358;-1.486;2023-12-20T12:36:28;100234.28;;;10.63;72.37
54562;BME280;69047;53.358;-1.486;2023-12-20T12:38:56;100243.06;;;10.85;72.28
54562;BME280;69047;53.358;-1.486;2023-12-20T12:41:22;100236.56;;;10.81;72.05
54562;BME280;69047;53.358;-1.486;2023-12-20T12:43:47;100207.19;;;10.63;72.85
54562;BME280;69047;53.358;-1.486;2023-12-20T12:46:12;100186.03;;;10.54;72.54
54562;BME280;69047;53.358;-1.486;2023-12-20T12:48:38;100194.72;;;10.62;72.27
54562;BME280;69047;53.358;-1.486;2023-12-20T12:51:04;100196.16;;;10.74;72.53